createdAt,value
2016-10-22T00:00:51.247Z,99.99
2016-10-22T00:01:50.649Z,99.99
2016-10-22T00:02:49.742Z,99.99
2016-10-22T00:03:50.189Z,99.99
2016-10-22T00:04:50.586Z,99.99
2016-10-22T00:05:50.384Z,99.99
2016-10-22T00:06:49.991Z,99.99
2016-10-22T00:07:50.867Z,99.99
2016-10-22T00:08:50.961Z,99.99
2016-10-22T00:09:50.054Z,99.99
2016-10-22T00:10:50.205Z,99.99
2016-10-22T00:11:50.329Z,99.99
2016-10-22T00:12:50.305Z,99.99
2016-10-22T00:13:50.264Z,99.99
2016-10-22T00:14:50.833Z,99.99
2016-10-22T00:15:50.367Z,99.99
2016-10-22T00:16:50.866Z,99.99
2016-10-22T00:17:50.416Z,99.99
2016-10-22T00:18:50.235Z,99.99
2016-10-22T00:19:50.308Z,99.99
2016-10-22T00:20:50.363Z,99.99
2016-10-22T00:21:50.411Z,99.99
2016-10-22T00:22:51.053Z,99.99
2016-10-22T00:23:50.370Z,99.99
2016-10-22T00:24:50.250Z,99.99
2016-10-22T00:25:50.395Z,99.99
2016-10-22T00:26:50.426Z,99.99
2016-10-22T00:27:50.258Z,99.99
2016-10-22T00:28:51.222Z,99.99
2016-10-22T00:29:50.485Z,99.99
2016-10-22T00:30:50.791Z,99.99
2016-10-22T00:31:51.586Z,99.99
2016-10-22T00:32:51.149Z,99.99
2016-10-22T00:33:50.527Z,99.99
2016-10-22T00:34:50.389Z,99.99
2016-10-22T00:35:50.318Z,99.99
2016-10-22T00:36:51.193Z,99.99
2016-10-22T00:37:50.311Z,99.99
2016-10-22T00:38:51.292Z,99.99
2016-10-22T00:39:51.492Z,99.99
2016-10-22T00:40:50.726Z,99.99
2016-10-22T00:41:50.358Z,99.99
2016-10-22T00:42:51.211Z,99.99
2016-10-22T00:43:50.665Z,99.99
2016-10-22T00:44:51.093Z,99.99
2016-10-22T00:45:51.421Z,99.99
2016-10-22T00:46:50.876Z,99.99
2016-10-22T00:47:51.182Z,99.99
2016-10-22T00:48:50.804Z,99.99
2016-10-22T00:49:50.678Z,99.99
2016-10-22T00:50:50.816Z,99.99
2016-10-22T00:51:50.800Z,99.99
2016-10-22T00:52:51.825Z,99.99
2016-10-22T00:53:51.258Z,99.99
2016-10-22T00:54:51.359Z,99.99
2016-10-22T00:55:51.392Z,99.99
2016-10-22T00:56:51.072Z,99.99
2016-10-22T00:57:50.601Z,99.99
2016-10-22T00:58:51.076Z,99.99
2016-10-22T00:59:51.182Z,99.99
2016-10-22T01:00:51.556Z,99.99
2016-10-22T01:01:51.127Z,99.99
2016-10-22T01:02:51.218Z,99.99
2016-10-22T01:03:51.420Z,99.99
2016-10-22T01:04:51.271Z,99.99
2016-10-22T01:05:52.531Z,99.99
2016-10-22T01:06:51.040Z,99.99
2016-10-22T01:07:51.084Z,99.99
2016-10-22T01:08:51.167Z,99.99
2016-10-22T01:09:52.020Z,99.99
2016-10-22T01:10:51.141Z,99.99
2016-10-22T01:11:51.547Z,99.99
2016-10-22T01:12:51.745Z,99.99
2016-10-22T01:13:52.340Z,99.99
2016-10-22T01:14:51.438Z,99.99
2016-10-22T01:15:51.290Z,99.99
2016-10-22T01:16:51.934Z,99.99
2016-10-22T01:17:51.533Z,99.99
2016-10-22T01:18:51.312Z,99.99
2016-10-22T01:19:51.773Z,99.99
2016-10-22T01:20:51.842Z,99.99
2016-10-22T01:21:51.741Z,99.99
2016-10-22T01:22:51.440Z,99.99
2016-10-22T01:23:51.345Z,99.99
2016-10-22T01:24:51.398Z,99.99
2016-10-22T01:25:51.421Z,99.99
2016-10-22T01:26:51.910Z,99.99
2016-10-22T01:27:51.506Z,99.99
2016-10-22T01:28:51.591Z,99.99
2016-10-22T01:29:51.773Z,99.99
2016-10-22T01:30:52.028Z,99.99
2016-10-22T01:31:51.832Z,99.99
2016-10-22T01:32:51.579Z,99.99
2016-10-22T01:33:51.705Z,99.99
2016-10-22T01:34:52.150Z,99.99
2016-10-22T01:35:52.246Z,99.99
2016-10-22T01:36:52.157Z,99.99
2016-10-22T01:37:52.094Z,99.99
2016-10-22T01:38:52.342Z,99.99
2016-10-22T01:39:52.148Z,99.99
2016-10-22T01:40:51.762Z,99.99
2016-10-22T01:41:51.723Z,99.99
2016-10-22T01:42:51.471Z,99.99
2016-10-22T01:43:51.991Z,99.99
2016-10-22T01:44:52.314Z,99.99
2016-10-22T01:45:51.675Z,99.99
2016-10-22T01:46:52.195Z,99.99
2016-10-22T01:47:52.212Z,99.99
2016-10-22T01:48:52.739Z,99.99
2016-10-22T01:49:51.454Z,99.99
2016-10-22T01:50:51.702Z,99.99
2016-10-22T01:51:51.902Z,99.99
2016-10-22T01:52:51.549Z,99.99
2016-10-22T01:53:52.389Z,99.99
2016-10-22T01:54:51.869Z,99.99
2016-10-22T01:55:52.378Z,99.99
2016-10-22T01:56:51.784Z,99.99
2016-10-22T01:57:53.196Z,99.99
2016-10-22T01:58:51.964Z,99.99
2016-10-22T01:59:52.784Z,99.99
2016-10-22T02:00:52.287Z,99.99
2016-10-22T02:01:51.893Z,99.99
2016-10-22T02:02:51.644Z,99.99
2016-10-22T02:03:52.133Z,99.99
2016-10-22T02:04:52.315Z,99.99
2016-10-22T02:05:52.622Z,99.99
2016-10-22T02:06:52.261Z,99.99
2016-10-22T02:07:52.006Z,99.99
2016-10-22T02:08:51.771Z,99.99
2016-10-22T02:09:52.504Z,99.99
2016-10-22T02:10:52.870Z,99.99
2016-10-22T02:11:52.664Z,99.99
2016-10-22T02:12:52.326Z,99.99
2016-10-22T02:13:52.816Z,99.99
2016-10-22T02:14:52.027Z,99.99
2016-10-22T02:15:52.346Z,99.99
2016-10-22T02:16:51.973Z,99.99
2016-10-22T02:17:52.093Z,99.99
2016-10-22T02:18:52.469Z,99.99
2016-10-22T02:19:52.432Z,99.99
2016-10-22T02:20:52.325Z,99.99
2016-10-22T02:21:52.841Z,99.99
2016-10-22T02:22:52.895Z,99.99
2016-10-22T02:23:52.359Z,99.99
2016-10-22T02:24:52.271Z,99.99
2016-10-22T02:25:51.947Z,99.99
2016-10-22T02:26:52.269Z,99.99
2016-10-22T02:27:52.252Z,99.99
2016-10-22T02:28:52.356Z,99.99
2016-10-22T02:29:52.566Z,99.99
2016-10-22T02:30:52.754Z,99.99
2016-10-22T02:31:52.268Z,99.99
2016-10-22T02:32:52.620Z,99.99
2016-10-22T02:33:53.094Z,99.99
2016-10-22T02:34:52.695Z,99.99
2016-10-22T02:35:52.467Z,99.99
2016-10-22T02:36:53.097Z,99.99
2016-10-22T02:37:52.217Z,99.99
2016-10-22T02:38:52.619Z,99.99
2016-10-22T02:39:52.275Z,99.99
2016-10-22T02:40:53.179Z,99.99
2016-10-22T02:41:52.372Z,99.99
2016-10-22T02:42:53.263Z,99.99
2016-10-22T02:43:52.975Z,99.99
2016-10-22T02:44:53.165Z,99.99
2016-10-22T02:45:52.940Z,99.99
2016-10-22T02:46:53.159Z,99.99
2016-10-22T02:47:52.901Z,99.99
2016-10-22T02:48:52.947Z,99.99
2016-10-22T02:49:52.651Z,99.99
2016-10-22T02:50:52.969Z,99.99
2016-10-22T02:51:53.250Z,99.99
2016-10-22T02:52:52.635Z,99.99
2016-10-22T02:53:52.934Z,99.99
2016-10-22T02:54:52.850Z,99.99
2016-10-22T02:55:52.464Z,99.99
2016-10-22T02:57:52.614Z,99.99
2016-10-22T02:58:52.801Z,99.99
2016-10-22T02:59:53.453Z,99.99
2016-10-22T03:00:53.075Z,99.99
2016-10-22T03:01:53.078Z,99.99
2016-10-22T03:02:52.594Z,99.99
2016-10-22T03:03:53.927Z,99.99
2016-10-22T03:04:52.913Z,99.99
2016-10-22T03:05:52.841Z,99.99
2016-10-22T03:06:52.909Z,99.99
2016-10-22T03:07:52.991Z,99.99
2016-10-22T03:08:53.187Z,99.99
2016-10-22T03:09:53.724Z,99.99
2016-10-22T03:10:54.109Z,99.99
2016-10-22T03:11:53.686Z,99.99
2016-10-22T03:12:53.317Z,99.99
2016-10-22T03:13:53.292Z,99.99
2016-10-22T03:14:52.709Z,99.99
2016-10-22T03:15:53.115Z,99.99
2016-10-22T03:16:52.710Z,99.99
2016-10-22T03:17:52.996Z,99.99
2016-10-22T03:18:53.287Z,99.99
2016-10-22T03:19:53.061Z,99.99
2016-10-22T03:20:53.034Z,99.99
2016-10-22T03:21:53.235Z,99.99
2016-10-22T03:22:53.038Z,99.99
2016-10-22T03:23:53.501Z,99.99
2016-10-22T03:24:54.166Z,99.99
2016-10-22T03:25:53.312Z,99.99
2016-10-22T03:26:53.093Z,99.99
2016-10-22T03:27:53.052Z,99.99
2016-10-22T03:28:54.070Z,99.99
2016-10-22T03:29:53.470Z,99.99
2016-10-22T03:30:52.995Z,99.99
2016-10-22T03:31:53.239Z,99.99
2016-10-22T03:32:53.786Z,99.99
2016-10-22T03:33:53.444Z,99.99
2016-10-22T03:34:54.499Z,99.99
2016-10-22T03:35:54.107Z,99.99
2016-10-22T03:36:54.282Z,99.99
2016-10-22T03:37:53.708Z,99.99
2016-10-22T03:38:54.016Z,99.99
2016-10-22T03:39:53.745Z,99.99
2016-10-22T03:40:53.887Z,99.99
2016-10-22T03:41:53.534Z,99.99
2016-10-22T03:42:54.066Z,99.99
2016-10-22T03:43:54.347Z,99.99
2016-10-22T03:44:53.984Z,99.99
2016-10-22T03:45:54.019Z,99.99
2016-10-22T03:46:53.985Z,99.99
2016-10-22T03:47:53.447Z,99.99
2016-10-22T03:48:54.619Z,99.99
2016-10-22T03:49:54.058Z,99.99
2016-10-22T03:50:54.372Z,99.99
2016-10-22T03:51:53.410Z,99.99
2016-10-22T03:52:54.098Z,99.99
2016-10-22T03:53:54.072Z,99.99
2016-10-22T03:54:53.416Z,99.99
2016-10-22T03:55:53.553Z,99.99
2016-10-22T03:56:53.966Z,99.99
2016-10-22T03:57:54.416Z,99.99
2016-10-22T03:58:53.994Z,99.99
2016-10-22T03:59:54.266Z,99.99
2016-10-22T04:00:54.337Z,99.99
2016-10-22T04:01:54.368Z,99.99
2016-10-22T04:02:54.879Z,99.99
2016-10-22T04:03:54.820Z,99.99
2016-10-22T04:04:54.362Z,99.99
2016-10-22T04:05:54.373Z,99.99
2016-10-22T04:06:54.299Z,99.99
2016-10-22T04:07:54.327Z,99.99
2016-10-22T04:08:54.190Z,99.99
2016-10-22T04:09:54.137Z,99.99
2016-10-22T04:10:54.333Z,99.99
2016-10-22T04:11:54.169Z,99.99
2016-10-22T04:12:54.064Z,99.99
2016-10-22T04:13:54.367Z,99.99
2016-10-22T04:14:54.294Z,99.99
2016-10-22T04:15:54.047Z,99.99
2016-10-22T04:16:54.294Z,99.99
2016-10-22T04:17:54.774Z,99.99
2016-10-22T04:18:53.876Z,99.99
2016-10-22T04:19:54.415Z,99.99
2016-10-22T04:20:54.662Z,99.99
2016-10-22T04:21:53.918Z,99.99
2016-10-22T04:22:54.191Z,99.99
2016-10-22T04:23:54.406Z,99.99
2016-10-22T04:24:54.730Z,99.99
2016-10-22T04:25:55.241Z,99.99
2016-10-22T04:26:54.239Z,99.99
2016-10-22T04:27:54.561Z,99.99
2016-10-22T04:28:54.325Z,99.99
2016-10-22T04:29:54.656Z,99.99
2016-10-22T04:30:54.354Z,99.99
2016-10-22T04:31:55.644Z,99.99
2016-10-22T04:32:55.129Z,99.99
2016-10-22T04:33:54.768Z,99.99
2016-10-22T04:34:54.950Z,99.99
2016-10-22T04:35:55.064Z,99.99
2016-10-22T04:36:54.471Z,99.99
2016-10-22T04:37:54.661Z,99.99
2016-10-22T04:38:55.565Z,99.99
2016-10-22T04:39:54.602Z,99.99
2016-10-22T04:40:54.926Z,99.99
2016-10-22T04:41:54.788Z,99.99
2016-10-22T04:42:55.425Z,99.99
2016-10-22T04:43:54.488Z,99.99
2016-10-22T04:44:55.714Z,99.99
2016-10-22T04:45:54.865Z,99.99
2016-10-22T04:46:54.660Z,99.99
2016-10-22T04:47:55.007Z,99.99
2016-10-22T04:48:54.955Z,99.99
2016-10-22T04:49:55.662Z,99.99
2016-10-22T04:50:54.435Z,99.99
2016-10-22T04:51:55.642Z,99.99
2016-10-22T04:52:55.041Z,99.99
2016-10-22T04:53:55.566Z,99.99
2016-10-22T04:54:55.390Z,99.99
2016-10-22T04:55:55.895Z,99.99
2016-10-22T04:56:55.070Z,99.99
2016-10-22T04:57:54.798Z,99.99
2016-10-22T04:58:55.010Z,99.99
2016-10-22T04:59:55.527Z,99.99
2016-10-22T05:00:55.471Z,99.99
2016-10-22T05:01:55.460Z,99.99
2016-10-22T05:02:55.311Z,99.99
2016-10-22T05:03:55.596Z,99.99
2016-10-22T05:04:56.187Z,99.99
2016-10-22T05:05:55.379Z,99.99
2016-10-22T05:06:55.195Z,99.99
2016-10-22T05:07:55.268Z,99.99
2016-10-22T05:08:55.243Z,99.99
2016-10-22T05:09:55.650Z,99.99
2016-10-22T05:10:55.052Z,99.99
2016-10-22T05:11:55.028Z,99.99
2016-10-22T05:12:55.434Z,99.99
2016-10-22T05:13:55.753Z,99.99
2016-10-22T05:14:55.708Z,99.99
2016-10-22T05:15:55.109Z,99.99
2016-10-22T05:16:55.534Z,99.99
2016-10-22T05:17:54.905Z,99.99
2016-10-22T05:18:55.583Z,99.99
2016-10-22T05:19:55.127Z,99.99
2016-10-22T05:20:55.512Z,99.99
2016-10-22T05:21:55.347Z,99.99
2016-10-22T05:22:55.604Z,99.99
2016-10-22T05:23:55.851Z,99.99
2016-10-22T05:24:54.957Z,99.99
2016-10-22T05:25:56.034Z,99.99
2016-10-22T05:26:55.540Z,99.99
2016-10-22T05:27:56.869Z,99.99
2016-10-22T05:28:55.477Z,99.99
2016-10-22T05:29:56.030Z,99.99
2016-10-22T05:30:55.608Z,99.99
2016-10-22T05:31:56.435Z,99.99
2016-10-22T05:32:55.543Z,99.99
2016-10-22T05:33:55.426Z,99.99
2016-10-22T05:34:55.976Z,99.99
2016-10-22T05:35:55.210Z,99.99
2016-10-22T05:36:55.205Z,99.99
2016-10-22T05:37:56.023Z,99.99
2016-10-22T05:38:55.405Z,99.99
2016-10-22T05:39:56.825Z,99.99
2016-10-22T05:40:56.511Z,99.99
2016-10-22T05:41:55.921Z,99.99
2016-10-22T05:42:55.563Z,99.99
2016-10-22T05:43:55.601Z,99.99
2016-10-22T05:44:55.316Z,99.99
2016-10-22T05:45:57.117Z,99.99
2016-10-22T05:46:55.625Z,99.99
2016-10-22T05:47:55.928Z,99.99
2016-10-22T05:48:55.611Z,99.99
2016-10-22T05:49:55.600Z,99.99
2016-10-22T05:50:55.765Z,99.99
2016-10-22T05:51:55.989Z,99.99
2016-10-22T05:52:55.892Z,99.99
2016-10-22T05:53:55.843Z,99.99
2016-10-22T05:54:55.688Z,99.99
2016-10-22T05:55:55.814Z,99.99
2016-10-22T05:56:56.290Z,99.99
2016-10-22T05:57:55.536Z,99.99
2016-10-22T05:58:55.963Z,99.99
2016-10-22T05:59:55.974Z,99.99
2016-10-22T06:00:56.085Z,99.99
2016-10-22T06:01:56.817Z,99.99
2016-10-22T06:02:55.833Z,99.99
2016-10-22T06:03:56.116Z,99.99
2016-10-22T06:04:56.134Z,99.99
2016-10-22T06:05:55.692Z,99.99
2016-10-22T06:06:56.868Z,99.99
2016-10-22T06:07:56.704Z,99.99
2016-10-22T06:08:56.342Z,99.99
2016-10-22T06:09:56.406Z,99.99
2016-10-22T06:10:55.650Z,99.99
2016-10-22T06:11:56.384Z,99.99
2016-10-22T06:12:55.853Z,99.99
2016-10-22T06:13:56.612Z,99.99
2016-10-22T06:14:56.623Z,99.99
2016-10-22T06:15:56.532Z,99.99
2016-10-22T06:16:56.292Z,99.99
2016-10-22T06:17:57.001Z,99.99
2016-10-22T06:18:56.422Z,99.99
2016-10-22T06:19:56.773Z,99.99
2016-10-22T06:20:56.532Z,99.99
2016-10-22T06:21:56.408Z,99.99
2016-10-22T06:22:55.876Z,99.99
2016-10-22T06:23:56.730Z,99.99
2016-10-22T06:24:57.390Z,99.99
2016-10-22T06:25:56.296Z,99.99
2016-10-22T06:26:55.673Z,99.99
2016-10-22T06:27:57.045Z,99.99
2016-10-22T06:28:56.659Z,99.99
2016-10-22T06:29:57.058Z,99.99
2016-10-22T06:30:56.181Z,99.99
2016-10-22T06:31:57.414Z,99.99
2016-10-22T06:32:56.820Z,99.99
2016-10-22T06:33:56.511Z,99.99
2016-10-22T06:34:56.314Z,99.99
2016-10-22T06:35:56.341Z,99.99
2016-10-22T06:36:57.134Z,99.99
2016-10-22T06:37:56.512Z,99.99
2016-10-22T06:38:56.612Z,99.99
2016-10-22T06:39:56.683Z,99.99
2016-10-22T06:40:56.537Z,99.99
2016-10-22T06:41:56.240Z,99.99
2016-10-22T06:42:56.628Z,99.99
2016-10-22T06:43:57.271Z,99.99
2016-10-22T06:44:56.816Z,99.99
2016-10-22T06:45:56.666Z,99.99
2016-10-22T06:46:56.823Z,99.99
2016-10-22T06:47:56.081Z,99.99
2016-10-22T06:48:56.385Z,99.99
2016-10-22T06:49:56.632Z,99.99
2016-10-22T06:50:56.656Z,99.99
2016-10-22T06:51:56.253Z,99.99
2016-10-22T06:52:56.659Z,99.99
2016-10-22T06:53:56.794Z,99.99
2016-10-22T06:54:56.184Z,99.99
2016-10-22T06:55:56.660Z,99.99
2016-10-22T06:56:56.978Z,99.99
2016-10-22T06:57:57.645Z,99.99
2016-10-22T06:58:56.658Z,99.99
2016-10-22T06:59:56.860Z,99.99
2016-10-22T07:00:57.012Z,99.99
2016-10-22T07:01:57.111Z,99.99
2016-10-22T07:02:56.985Z,99.99
2016-10-22T07:03:56.676Z,99.99
2016-10-22T07:04:57.063Z,99.99
2016-10-22T07:05:57.181Z,99.99
2016-10-22T07:06:56.639Z,99.99
2016-10-22T07:07:56.550Z,99.99
2016-10-22T07:08:57.025Z,99.99
2016-10-22T07:09:57.579Z,99.99
2016-10-22T07:10:58.001Z,99.99
2016-10-22T07:11:56.970Z,99.99
2016-10-22T07:12:56.788Z,99.99
2016-10-22T07:13:56.988Z,99.99
2016-10-22T07:14:57.332Z,99.99
2016-10-22T07:15:56.529Z,99.99
2016-10-22T07:16:56.981Z,99.99
2016-10-22T07:17:57.522Z,99.99
2016-10-22T07:18:56.800Z,99.99
2016-10-22T07:19:57.958Z,99.99
2016-10-22T07:20:57.701Z,99.99
2016-10-22T07:21:57.727Z,99.99
2016-10-22T07:22:57.327Z,99.99
2016-10-22T07:23:56.709Z,99.99
2016-10-22T07:24:56.905Z,99.99
2016-10-22T07:25:57.424Z,99.99
2016-10-22T07:26:57.618Z,99.99
2016-10-22T07:27:57.176Z,99.99
2016-10-22T07:28:57.187Z,99.99
2016-10-22T07:29:57.923Z,99.99
2016-10-22T07:30:57.052Z,99.99
2016-10-22T07:31:57.559Z,99.99
2016-10-22T07:32:57.114Z,99.99
2016-10-22T07:33:57.415Z,99.99
2016-10-22T07:34:56.803Z,99.99
2016-10-22T07:35:58.078Z,99.99
2016-10-22T07:36:57.820Z,99.99
2016-10-22T07:37:57.295Z,99.99
2016-10-22T07:38:57.323Z,99.99
2016-10-22T07:39:57.699Z,99.99
2016-10-22T07:40:57.468Z,99.99
2016-10-22T07:41:57.564Z,99.99
2016-10-22T07:42:57.560Z,99.99
2016-10-22T07:43:57.218Z,99.99
2016-10-22T07:44:57.522Z,99.99
2016-10-22T07:45:57.216Z,99.99
2016-10-22T07:46:57.677Z,99.99
2016-10-22T07:47:57.434Z,99.99
2016-10-22T07:48:57.943Z,99.99
2016-10-22T07:49:57.642Z,99.99
2016-10-22T07:50:57.240Z,99.99
2016-10-22T07:51:57.356Z,99.99
2016-10-22T07:52:57.883Z,99.99
2016-10-22T07:53:57.400Z,99.99
2016-10-22T07:54:57.443Z,99.99
2016-10-22T07:55:57.416Z,99.99
2016-10-22T07:56:58.251Z,99.99
2016-10-22T07:57:57.741Z,99.99
2016-10-22T07:58:58.026Z,99.99
2016-10-22T07:59:57.912Z,99.99
2016-10-22T08:00:57.587Z,99.99
2016-10-22T08:01:58.084Z,99.99
2016-10-22T08:02:57.819Z,99.99
2016-10-22T08:03:58.110Z,99.99
2016-10-22T08:04:57.849Z,99.99
2016-10-22T08:05:57.637Z,99.99
2016-10-22T08:06:57.795Z,99.99
2016-10-22T08:07:58.478Z,99.99
2016-10-22T08:08:57.874Z,99.99
2016-10-22T08:09:57.454Z,99.99
2016-10-22T08:10:57.996Z,99.99
2016-10-22T08:11:58.124Z,99.99
2016-10-22T08:12:57.479Z,99.99
2016-10-22T08:13:58.169Z,99.99
2016-10-22T08:14:58.543Z,99.99
2016-10-22T08:15:58.074Z,99.99
2016-10-22T08:16:58.038Z,99.99
2016-10-22T08:17:57.810Z,99.99
2016-10-22T08:18:58.520Z,99.99
2016-10-22T08:19:57.667Z,99.99
2016-10-22T08:20:57.734Z,99.99
2016-10-22T08:21:57.678Z,99.99
2016-10-22T08:22:58.281Z,99.99
2016-10-22T08:23:57.642Z,99.99
2016-10-22T08:24:58.634Z,99.99
2016-10-22T08:25:58.997Z,99.99
2016-10-22T08:26:58.272Z,99.99
2016-10-22T08:27:58.136Z,99.99
2016-10-22T08:28:58.340Z,99.99
2016-10-22T08:29:58.188Z,99.99
2016-10-22T08:30:58.952Z,99.99
2016-10-22T08:31:57.707Z,99.99
2016-10-22T08:32:58.398Z,99.99
2016-10-22T08:33:58.127Z,99.99
2016-10-22T08:34:58.611Z,99.99
2016-10-22T08:35:58.729Z,99.99
2016-10-22T08:36:59.021Z,99.99
2016-10-22T08:37:58.414Z,99.99
2016-10-22T08:38:58.423Z,99.99
2016-10-22T08:39:58.368Z,99.99
2016-10-22T08:40:58.555Z,99.99
2016-10-22T08:41:58.564Z,99.99
2016-10-22T08:42:58.137Z,99.99
2016-10-22T08:43:58.021Z,99.99
2016-10-22T08:44:58.348Z,99.99
2016-10-22T08:45:58.312Z,99.99
2016-10-22T08:46:58.304Z,99.99
2016-10-22T08:47:59.412Z,99.99
2016-10-22T08:48:58.268Z,99.99
2016-10-22T08:49:58.180Z,99.99
2016-10-22T08:50:58.482Z,99.99
2016-10-22T08:51:58.361Z,99.99
2016-10-22T08:52:58.646Z,99.99
2016-10-22T08:53:58.301Z,99.99
2016-10-22T08:54:58.537Z,99.99
2016-10-22T08:55:58.457Z,99.99
2016-10-22T08:56:58.500Z,99.99
2016-10-22T08:57:59.681Z,99.99
2016-10-22T08:58:58.646Z,99.99
2016-10-22T08:59:59.266Z,99.99
2016-10-22T09:00:59.411Z,99.99
2016-10-22T09:01:59.267Z,99.99
2016-10-22T09:02:59.216Z,99.99
2016-10-22T09:03:59.085Z,99.99
2016-10-22T09:04:58.419Z,99.99
2016-10-22T09:05:59.143Z,99.99
2016-10-22T09:06:58.680Z,99.99
2016-10-22T09:07:58.699Z,99.99
2016-10-22T09:08:58.719Z,99.99
2016-10-22T09:09:58.580Z,99.99
2016-10-22T09:10:58.537Z,99.99
2016-10-22T09:11:58.617Z,99.99
2016-10-22T09:12:58.631Z,99.99
2016-10-22T09:13:59.701Z,99.99
2016-10-22T09:15:00.519Z,99.99
2016-10-22T09:15:59.279Z,99.99
2016-10-22T09:16:58.614Z,99.99
2016-10-22T09:18:00.041Z,99.99
2016-10-22T09:18:59.147Z,99.99
2016-10-22T09:19:59.606Z,99.99
2016-10-22T09:21:00.633Z,99.99
2016-10-22T09:21:59.121Z,99.99
2016-10-22T09:22:59.978Z,99.99
2016-10-22T09:23:59.530Z,99.99
2016-10-22T09:24:59.602Z,99.99
2016-10-22T09:25:59.292Z,99.99
2016-10-22T09:26:59.487Z,99.99
2016-10-22T09:27:59.104Z,99.99
2016-10-22T09:28:59.188Z,99.99
2016-10-22T09:29:59.012Z,99.99
2016-10-22T09:30:59.608Z,99.99
2016-10-22T09:31:59.692Z,99.99
2016-10-22T09:32:59.656Z,99.99
2016-10-22T09:33:59.787Z,99.99
2016-10-22T09:34:59.455Z,99.99
2016-10-22T09:35:59.878Z,99.99
2016-10-22T09:36:59.458Z,99.99
2016-10-22T09:37:59.927Z,99.99
2016-10-22T09:38:59.809Z,99.99
2016-10-22T09:39:59.250Z,99.99
2016-10-22T09:40:59.592Z,99.99
2016-10-22T09:41:58.979Z,99.99
2016-10-22T09:42:59.265Z,99.99
2016-10-22T09:43:59.443Z,99.99
2016-10-22T09:44:59.888Z,99.99
2016-10-22T09:45:59.868Z,99.99
2016-10-22T09:46:59.530Z,99.99
2016-10-22T09:47:59.603Z,99.99
2016-10-22T09:48:59.423Z,99.99
2016-10-22T09:49:59.624Z,99.99
2016-10-22T09:51:00.340Z,99.99
2016-10-22T09:51:59.419Z,99.99
2016-10-22T09:52:59.872Z,99.99
2016-10-22T09:53:59.512Z,99.99
2016-10-22T09:54:59.497Z,99.99
2016-10-22T09:55:59.763Z,99.99
2016-10-22T09:57:00.541Z,99.99
2016-10-22T09:57:59.566Z,99.99
2016-10-22T09:58:59.933Z,99.99
2016-10-22T09:59:59.815Z,99.99
2016-10-22T10:01:00.176Z,99.99
2016-10-22T10:01:59.531Z,99.99
2016-10-22T10:03:01.183Z,99.99
2016-10-22T10:03:59.732Z,99.99
2016-10-22T10:04:59.497Z,99.93
2016-10-22T10:06:00.067Z,99.36
2016-10-22T10:07:00.142Z,99.36
2016-10-22T10:08:00.712Z,99.99
2016-10-22T10:09:00.046Z,99.99
2016-10-22T10:10:00.200Z,99.99
2016-10-22T10:10:59.574Z,99.99
2016-10-22T10:12:00.219Z,99.99
2016-10-22T10:13:00.680Z,99.99
2016-10-22T10:13:59.892Z,99.99
2016-10-22T10:15:00.283Z,99.99
2016-10-22T10:16:00.571Z,99.99
2016-10-22T10:16:59.864Z,99.99
2016-10-22T10:18:00.646Z,99.99
2016-10-22T10:19:00.451Z,99.99
2016-10-22T10:20:00.576Z,99.65
2016-10-22T10:20:59.923Z,99.99
2016-10-22T10:22:01.410Z,99.99
2016-10-22T10:23:00.135Z,99.99
2016-10-22T10:24:00.301Z,99.99
2016-10-22T10:25:00.283Z,99.99
2016-10-22T10:26:00.219Z,98.79
2016-10-22T10:27:00.553Z,99.99
2016-10-22T10:28:00.264Z,99.99
2016-10-22T10:29:00.354Z,99.99
2016-10-22T10:30:00.343Z,99.99
2016-10-22T10:31:00.675Z,99.99
2016-10-22T10:32:01.074Z,99.99
2016-10-22T10:33:00.790Z,99.99
2016-10-22T10:34:00.220Z,99.99
2016-10-22T10:35:00.250Z,99.99
2016-10-22T10:36:00.405Z,99.74
2016-10-22T10:37:00.017Z,99.12
2016-10-22T10:38:00.448Z,99.99
2016-10-22T10:39:00.357Z,99.99
2016-10-22T10:40:00.356Z,99.99
2016-10-22T10:41:00.215Z,99.99
2016-10-22T10:42:00.888Z,99.99
2016-10-22T10:43:02.115Z,99.99
2016-10-22T10:44:00.052Z,99.99
2016-10-22T10:45:01.033Z,99.99
2016-10-22T10:46:00.888Z,99.99
2016-10-22T10:47:00.246Z,99.99
2016-10-22T10:48:00.324Z,99.99
2016-10-22T10:49:00.871Z,99.99
2016-10-22T10:50:00.860Z,99.99
2016-10-22T10:51:00.944Z,99.99
2016-10-22T10:52:00.769Z,99.99
2016-10-22T10:53:00.320Z,99.99
2016-10-22T10:54:01.060Z,99.99
2016-10-22T10:55:00.642Z,99.99
2016-10-22T10:56:00.844Z,99.88
2016-10-22T10:57:00.684Z,98.46
2016-10-22T10:58:00.303Z,99.27
2016-10-22T10:59:00.727Z,99.02
2016-10-22T11:00:00.817Z,98.83
2016-10-22T11:01:01.569Z,98.65
2016-10-22T11:02:01.157Z,98.65
2016-10-22T11:03:02.125Z,98.65
2016-10-22T11:04:00.769Z,98.55
2016-10-22T11:05:00.721Z,99.6
2016-10-22T11:06:00.918Z,99.69
2016-10-22T11:07:00.892Z,99.99
2016-10-22T11:08:00.919Z,99.99
2016-10-22T11:09:01.518Z,99.99
2016-10-22T11:10:00.901Z,99.99
2016-10-22T11:11:01.434Z,99.99
2016-10-22T11:12:00.916Z,99.99
2016-10-22T11:13:01.601Z,99.99
2016-10-22T11:14:01.609Z,99.99
2016-10-22T11:15:01.134Z,99.99
2016-10-22T11:16:01.489Z,99.99
2016-10-22T11:17:00.810Z,99.99
2016-10-22T11:18:00.760Z,99.99
2016-10-22T11:19:01.741Z,99.99
2016-10-22T11:20:01.545Z,99.99
2016-10-22T11:21:01.679Z,99.99
2016-10-22T11:22:01.381Z,99.99
2016-10-22T11:23:01.009Z,99.99
2016-10-22T11:24:01.757Z,99.99
2016-10-22T11:25:02.134Z,99.99
2016-10-22T11:26:01.228Z,99.99
2016-10-22T11:27:01.592Z,99.99
2016-10-22T11:28:01.382Z,99.88
2016-10-22T11:29:01.308Z,99.99
2016-10-22T11:30:01.864Z,99.99
2016-10-22T11:31:01.331Z,99.99
2016-10-22T11:32:02.877Z,99.99
2016-10-22T11:33:01.314Z,99.99
2016-10-22T11:34:01.413Z,99.99
2016-10-22T11:35:01.634Z,99.99
2016-10-22T11:36:01.184Z,98.5
2016-10-22T11:37:01.240Z,98.55
2016-10-22T11:38:02.152Z,98.6
2016-10-22T11:39:01.736Z,99.74
2016-10-22T11:40:01.917Z,98.79
2016-10-22T11:41:02.349Z,99.99
2016-10-22T11:42:01.750Z,99.99
2016-10-22T11:43:02.057Z,98.22
2016-10-22T11:44:02.213Z,99.99
2016-10-22T11:45:01.683Z,98.79
2016-10-22T11:46:01.615Z,97.65
2016-10-22T11:47:01.600Z,97.93
2016-10-22T11:48:02.555Z,96.7
2016-10-22T11:49:02.167Z,96.03
2016-10-22T11:50:03.052Z,96.51
2016-10-22T11:51:02.603Z,96.7
2016-10-22T11:52:01.696Z,97.13
2016-10-22T11:53:02.129Z,95.89
2016-10-22T11:54:02.237Z,96.31
2016-10-22T11:55:01.437Z,95.46
2016-10-22T11:56:01.969Z,95.65
2016-10-22T11:57:02.085Z,95.17
2016-10-22T11:58:01.521Z,97.51
2016-10-22T11:59:02.139Z,98.03
2016-10-22T12:00:02.198Z,96.65
2016-10-22T12:01:02.249Z,97.51
2016-10-22T12:02:02.350Z,95.22
2016-10-22T12:03:02.056Z,96.94
2016-10-22T12:04:02.229Z,96.08
2016-10-22T12:05:02.145Z,94.65
2016-10-22T12:06:03.049Z,95.98
2016-10-22T12:07:02.317Z,96.75
2016-10-22T12:08:01.907Z,97.22
2016-10-22T12:09:02.451Z,94.84
2016-10-22T12:10:01.932Z,93.03
2016-10-22T12:11:01.930Z,93.6
2016-10-22T12:12:02.337Z,93.7
2016-10-22T12:13:02.543Z,93.41
2016-10-22T12:14:02.097Z,92.65
2016-10-22T12:15:02.636Z,94.08
2016-10-22T12:16:02.379Z,94.27
2016-10-22T12:17:02.366Z,95.7
2016-10-22T12:18:02.515Z,95.22
2016-10-22T12:19:02.271Z,96.08
2016-10-22T12:20:02.850Z,94.51
2016-10-22T12:21:02.121Z,91.55
2016-10-22T12:22:02.248Z,90.79
2016-10-22T12:23:02.419Z,91.65
2016-10-22T12:24:02.491Z,90.98
2016-10-22T12:25:02.575Z,91.41
2016-10-22T12:26:02.588Z,91.89
2016-10-22T12:27:02.434Z,92.36
2016-10-22T12:28:03.056Z,92.79
2016-10-22T12:29:04.003Z,95.75
2016-10-22T12:30:02.960Z,93.27
2016-10-22T12:31:02.363Z,94.13
2016-10-22T12:32:02.613Z,96.03
2016-10-22T12:33:02.580Z,94.51
2016-10-22T12:34:03.342Z,93.74
2016-10-22T12:35:02.488Z,94.22
2016-10-22T12:36:02.388Z,93.84
2016-10-22T12:37:03.211Z,90.98
2016-10-22T12:38:03.027Z,90.98
2016-10-22T12:39:03.708Z,92.22
2016-10-22T12:40:03.135Z,92.41
2016-10-22T12:41:03.101Z,94.7
2016-10-22T12:42:03.043Z,92.79
2016-10-22T12:43:03.285Z,92.89
2016-10-22T12:44:03.071Z,93.22
2016-10-22T12:45:02.738Z,92.36
2016-10-22T12:46:02.666Z,92.27
2016-10-22T12:47:02.978Z,92.36
2016-10-22T12:48:03.199Z,92.94
2016-10-22T12:49:02.475Z,94.37
2016-10-22T12:50:03.225Z,95.6
2016-10-22T12:51:03.022Z,94.46
2016-10-22T12:52:03.003Z,93.13
2016-10-22T12:53:03.293Z,92.94
2016-10-22T12:54:02.550Z,94.27
2016-10-22T12:55:02.705Z,95.32